Zuni Pueblo, New Mexico
Current Conditions -  °F | °C
As of 8:06 PM on Friday 19 Dec 2014 (Local Time) from KGUP Reporting Station
Few Clouds Few Clouds  
Wind Chill: 28°   Ceiling: Unl
Heat Index: 28°   Visibility: 10mi
Dew Point: 26°   Wind: 0mph
Humidity: 92%   Direction: NA
Pressure: 30.22"   Gusts: NA
Location:  35.0898°N, 108.763°W
Report Text: KGUP 200306Z AUTO 00000KT 10SM FEW009 M02/M03 A3022 RMK AO2 T10221033
Loading
Personal Weather Stations






























Interactive Weather Map New forecast layout! Learn more

10-Day Weather Forecast

Advertisements
Track Severe Weather on mobile